This is the latest recevied weather packets stored in our database for station/object LZ2SLL-13. If no packets are shown the sender has not sent any weather packets the latest 1 day(s).
| Time | Temp. | Humidity | Pressure | Rain* | Wind** | Luminosity | Snow |
|---|---|---|---|---|---|---|---|
| 1777987344 | 16.11° C | 59% | - | 0 mm | 1.79 m/s, 184° | 632 W/m² | - |
| 1777987044 | 17.22° C | 54% | - | 0 mm | 1.79 m/s, 166° | 647 W/m² | - |
| 1777986743 | 17.22° C | 53% | - | 0 mm | 1.34 m/s, 127° | 665 W/m² | - |
| 1777986442 | 16.67° C | 54% | - | 0 mm | 1.34 m/s, 124° | 681 W/m² | - |
| 1777986141 | 16.67° C | 55% | - | 0 mm | 1.79 m/s, 127° | 698 W/m² | - |
| 1777985841 | 17.22° C | 52% | - | 0 mm | 0.89 m/s, 180° | 718 W/m² | - |
| 1777985540 | 16.67° C | 53% | - | 0 mm | 1.79 m/s, 173° | 730 W/m² | - |
| 1777985239 | 17.78° C | 53% | - | 0 mm | 0.89 m/s, 170° | 745 W/m² | - |
| 1777984938 | 16.67° C | 56% | - | 0 mm | 0.45 m/s, 102° | 758 W/m² | - |
| 1777984637 | 16.11° C | 54% | - | 0 mm | 2.68 m/s, 180° | 774 W/m² | - |
| 1777984337 | 16.67° C | 52% | - | 0 mm | 2.68 m/s, 136° | 789 W/m² | - |
| 1777984036 | 16.67° C | 53% | - | 0 mm | 2.68 m/s, 191° | 664 W/m² | - |
| 1777983735 | 16.67° C | 54% | - | 0 mm | 0.89 m/s, 183° | 815 W/m² | - |
| 1777983434 | 16.67° C | 55% | - | 0 mm | 1.79 m/s, 128° | 825 W/m² | - |
| 1777983134 | 16.67° C | 55% | - | 0 mm | 2.24 m/s, 171° | 835 W/m² | - |
| 1777982833 | 17.78° C | 54% | - | 0 mm | 0.89 m/s, 169° | 845 W/m² | - |
| 1777982532 | 18.33° C | 50% | - | 0 mm | 0.89 m/s, 174° | 149 W/m² | - |
| 1777982231 | 17.78° C | 50% | - | 0 mm | 1.34 m/s, 155° | 875 W/m² | - |
| 1777981931 | 18.89° C | 49% | - | 0 mm | 1.34 m/s, 219° | 887 W/m² | - |
| 1777981630 | 18.33° C | 50% | - | 0 mm | 0.89 m/s, 194° | 899 W/m² | - |
| 1777981329 | 18.33° C | 50% | - | 0 mm | 0.89 m/s, 233° | 909 W/m² | - |
| 1777981028 | 18.33° C | 51% | - | 0 mm | 1.34 m/s, 102° | 914 W/m² | - |
| 1777980728 | 18.33° C | 50% | - | 0 mm | 0.45 m/s, 119° | 927 W/m² | - |
| 1777980427 | 18.33° C | 50% | - | 0 mm | 1.79 m/s, 205° | 936 W/m² | - |
| 1777980126 | 18.33° C | 49% | - | 0 mm | 1.34 m/s, 166° | 942 W/m² | - |
* Rain latest hour (hover to see other rain measurements)
** Current wind speed in m/s (hover to see current wind gust speed)